Main page
METAR-TAF:

METAR-TAF

Airports :

St. Gallen–Altenrhein Airport

St. Gallen, Switzerland

latitude: 47-29-06N, longitude: 009-33-43E, elevation: 398 m

Current weather observation

The report was made 20 minutes ago, at 01:50 UTC
Wind 4 kt from the East
Temperature 5°C
Humidity 93%
Pressure 1026 hPa
Visibility 10 km or more
Overcast at a height of 800 ft

METAR: LSZR 160150Z AUTO 09004KT 9999 OVC008 05/04 Q1026

Time: 03:10 (02:10 UTC)

Forecast

The report was made 11 hours and 45 minutes ago, at 14:25 UTC
Forecast valid from 15 at 15 UTC to 15 at 24 UTC
Wind 3 kt from variable directions
Visibility: 8000 m
Broken clouds at a height of 1100 ft
Becoming
from 15 at 19 UTC to 15 at 22 UTC
Visibility: 4000 m
mist

TAF: LSZR 151425Z 1515/1524 VRB03KT 8000 BKN011 BECMG 1519/1522 4000 BR

Weather observations and forecasts of more than 4000 airports (METAR and TAF reports).

The available stations are represented by yellow and red dots on the map.

Hover mouse over dot to see the name of the station.

Then click to see weather observations and forecasts.

To change the map : click on the green buttons with a black cross to zoom in, on the green button with a dash to zoom out, or on the green arrows for adjacent maps.


METAR-TAF: